sensor_id;sensor_type;location;lat;lon;timestamp;P1;durP1;ratioP1;P2;durP2;ratioP2
4597;SDS011;62772;48.646;8.906;2023-04-25T00:02:23;10.83;;;5.83;;
4597;SDS011;62772;48.646;8.906;2023-04-25T00:07:25;7.23;;;4.43;;
4597;SDS011;62772;48.646;8.906;2023-04-25T00:12:25;8.10;;;4.80;;
4597;SDS011;62772;48.646;8.906;2023-04-25T00:17:28;7.70;;;5.00;;
4597;SDS011;62772;48.646;8.906;2023-04-25T00:22:29;6.30;;;3.97;;
4597;SDS011;62772;48.646;8.906;2023-04-25T00:27:30;7.20;;;4.63;;
4597;SDS011;62772;48.646;8.906;2023-04-25T00:32:30;8.20;;;4.03;;
4597;SDS011;62772;48.646;8.906;2023-04-25T00:37:31;7.10;;;4.27;;
4597;SDS011;62772;48.646;8.906;2023-04-25T00:42:31;5.10;;;4.00;;
4597;SDS011;62772;48.646;8.906;2023-04-25T00:47:32;4.57;;;3.37;;
4597;SDS011;62772;48.646;8.906;2023-04-25T00:52:33;5.67;;;3.70;;
4597;SDS011;62772;48.646;8.906;2023-04-25T00:57:34;5.60;;;3.80;;
4597;SDS011;62772;48.646;8.906;2023-04-25T01:02:34;6.17;;;3.67;;
4597;SDS011;62772;48.646;8.906;2023-04-25T01:07:36;6.87;;;4.10;;
4597;SDS011;62772;48.646;8.906;2023-04-25T01:12:36;6.07;;;4.03;;
4597;SDS011;62772;48.646;8.906;2023-04-25T01:17:37;10.60;;;3.80;;
4597;SDS011;62772;48.646;8.906;2023-04-25T01:22:39;6.00;;;4.47;;
4597;SDS011;62772;48.646;8.906;2023-04-25T01:27:39;7.10;;;4.00;;
4597;SDS011;62772;48.646;8.906;2023-04-25T01:32:41;5.63;;;3.80;;
4597;SDS011;62772;48.646;8.906;2023-04-25T01:37:42;5.53;;;4.00;;
4597;SDS011;62772;48.646;8.906;2023-04-25T01:42:45;6.33;;;4.17;;
4597;SDS011;62772;48.646;8.906;2023-04-25T01:47:46;6.00;;;4.20;;
4597;SDS011;62772;48.646;8.906;2023-04-25T01:52:50;7.93;;;4.30;;
4597;SDS011;62772;48.646;8.906;2023-04-25T01:57:51;6.30;;;3.63;;
4597;SDS011;62772;48.646;8.906;2023-04-25T02:02:57;6.17;;;4.10;;
4597;SDS011;62772;48.646;8.906;2023-04-25T02:08:08;6.47;;;3.10;;
4597;SDS011;62772;48.646;8.906;2023-04-25T02:13:09;6.97;;;3.90;;
4597;SDS011;62772;48.646;8.906;2023-04-25T02:18:36;5.90;;;3.40;;
4597;SDS011;62772;48.646;8.906;2023-04-25T02:23:37;5.93;;;3.30;;
4597;SDS011;62772;48.646;8.906;2023-04-25T02:28:37;5.97;;;3.27;;
4597;SDS011;62772;48.646;8.906;2023-04-25T02:33:38;8.60;;;3.80;;
4597;SDS011;62772;48.646;8.906;2023-04-25T02:38:40;5.20;;;3.60;;
4597;SDS011;62772;48.646;8.906;2023-04-25T02:43:40;6.70;;;3.73;;
4597;SDS011;62772;48.646;8.906;2023-04-25T02:48:41;6.13;;;4.07;;
4597;SDS011;62772;48.646;8.906;2023-04-25T02:53:41;5.63;;;4.20;;
4597;SDS011;62772;48.646;8.906;2023-04-25T02:58:42;10.63;;;4.70;;
4597;SDS011;62772;48.646;8.906;2023-04-25T03:03:43;6.50;;;4.40;;
4597;SDS011;62772;48.646;8.906;2023-04-25T03:08:43;8.27;;;4.70;;
4597;SDS011;62772;48.646;8.906;2023-04-25T03:13:44;7.97;;;4.83;;
4597;SDS011;62772;48.646;8.906;2023-04-25T03:18:45;9.10;;;4.57;;
4597;SDS011;62772;48.646;8.906;2023-04-25T03:23:46;7.40;;;4.40;;
4597;SDS011;62772;48.646;8.906;2023-04-25T03:28:46;11.10;;;4.60;;
4597;SDS011;62772;48.646;8.906;2023-04-25T03:33:47;10.30;;;5.10;;
4597;SDS011;62772;48.646;8.906;2023-04-25T03:38:48;9.70;;;6.00;;
4597;SDS011;62772;48.646;8.906;2023-04-25T03:43:50;13.00;;;5.70;;
4597;SDS011;62772;48.646;8.906;2023-04-25T03:48:51;8.67;;;5.00;;
4597;SDS011;62772;48.646;8.906;2023-04-25T03:53:56;8.00;;;5.37;;
4597;SDS011;62772;48.646;8.906;2023-04-25T03:59:26;9.07;;;5.13;;
4597;SDS011;62772;48.646;8.906;2023-04-25T04:04:27;10.20;;;5.70;;
4597;SDS011;62772;48.646;8.906;2023-04-25T04:09:28;18.43;;;5.83;;
4597;SDS011;62772;48.646;8.906;2023-04-25T04:14:29;7.60;;;4.57;;
4597;SDS011;62772;48.646;8.906;2023-04-25T04:19:30;9.80;;;5.53;;
4597;SDS011;62772;48.646;8.906;2023-04-25T04:24:39;6.97;;;4.80;;
4597;SDS011;62772;48.646;8.906;2023-04-25T04:29:41;7.77;;;5.27;;
4597;SDS011;62772;48.646;8.906;2023-04-25T04:34:49;6.80;;;4.60;;
4597;SDS011;62772;48.646;8.906;2023-04-25T04:39:51;10.77;;;6.70;;
4597;SDS011;62772;48.646;8.906;2023-04-25T04:45:14;10.60;;;5.77;;
4597;SDS011;62772;48.646;8.906;2023-04-25T04:50:44;9.80;;;6.13;;
4597;SDS011;62772;48.646;8.906;2023-04-25T04:56:16;10.77;;;6.47;;
4597;SDS011;62772;48.646;8.906;2023-04-25T05:01:36;12.00;;;7.83;;
4597;SDS011;62772;48.646;8.906;2023-04-25T05:06:51;12.03;;;7.07;;
4597;SDS011;62772;48.646;8.906;2023-04-25T05:12:10;11.80;;;7.40;;
4597;SDS011;62772;48.646;8.906;2023-04-25T05:17:31;13.33;;;6.87;;
4597;SDS011;62772;48.646;8.906;2023-04-25T05:22:50;12.63;;;7.00;;
4597;SDS011;62772;48.646;8.906;2023-04-25T05:28:12;14.77;;;8.50;;
4597;SDS011;62772;48.646;8.906;2023-04-25T05:33:52;10.37;;;6.50;;
4597;SDS011;62772;48.646;8.906;2023-04-25T05:38:53;10.67;;;7.13;;
4597;SDS011;62772;48.646;8.906;2023-04-25T05:43:54;12.53;;;6.43;;
4597;SDS011;62772;48.646;8.906;2023-04-25T05:49:02;15.20;;;7.30;;
4597;SDS011;62772;48.646;8.906;2023-04-25T05:54:21;17.10;;;8.77;;
4597;SDS011;62772;48.646;8.906;2023-04-25T05:59:21;12.17;;;6.77;;
4597;SDS011;62772;48.646;8.906;2023-04-25T06:04:22;10.10;;;6.70;;
4597;SDS011;62772;48.646;8.906;2023-04-25T06:09:22;9.70;;;6.17;;
4597;SDS011;62772;48.646;8.906;2023-04-25T06:14:23;13.83;;;6.70;;
4597;SDS011;62772;48.646;8.906;2023-04-25T06:19:24;9.70;;;6.87;;
4597;SDS011;62772;48.646;8.906;2023-04-25T06:24:25;18.03;;;7.63;;
4597;SDS011;62772;48.646;8.906;2023-04-25T06:29:26;12.37;;;6.77;;
4597;SDS011;62772;48.646;8.906;2023-04-25T06:34:26;11.87;;;7.30;;
4597;SDS011;62772;48.646;8.906;2023-04-25T06:39:27;12.60;;;6.80;;
4597;SDS011;62772;48.646;8.906;2023-04-25T06:44:29;11.77;;;6.30;;
4597;SDS011;62772;48.646;8.906;2023-04-25T06:49:30;10.03;;;6.00;;
4597;SDS011;62772;48.646;8.906;2023-04-25T06:54:31;9.63;;;5.40;;
4597;SDS011;62772;48.646;8.906;2023-04-25T06:59:40;10.50;;;6.40;;
4597;SDS011;62772;48.646;8.906;2023-04-25T07:04:42;14.43;;;7.83;;
4597;SDS011;62772;48.646;8.906;2023-04-25T07:09:43;10.07;;;6.53;;
4597;SDS011;62772;48.646;8.906;2023-04-25T07:14:43;9.90;;;6.20;;
4597;SDS011;62772;48.646;8.906;2023-04-25T07:19:44;57.30;;;16.70;;
4597;SDS011;62772;48.646;8.906;2023-04-25T07:24:45;13.23;;;7.47;;
4597;SDS011;62772;48.646;8.906;2023-04-25T07:29:49;11.00;;;6.67;;
4597;SDS011;62772;48.646;8.906;2023-04-25T07:34:49;10.53;;;6.53;;
4597;SDS011;62772;48.646;8.906;2023-04-25T07:39:51;12.57;;;6.77;;
4597;SDS011;62772;48.646;8.906;2023-04-25T07:44:51;12.57;;;7.00;;
4597;SDS011;62772;48.646;8.906;2023-04-25T07:49:52;10.73;;;6.30;;
4597;SDS011;62772;48.646;8.906;2023-04-25T07:54:53;10.17;;;7.03;;
4597;SDS011;62772;48.646;8.906;2023-04-25T08:00:01;11.10;;;6.73;;
4597;SDS011;62772;48.646;8.906;2023-04-25T08:05:03;11.40;;;6.77;;
4597;SDS011;62772;48.646;8.906;2023-04-25T08:10:04;11.93;;;7.03;;
4597;SDS011;62772;48.646;8.906;2023-04-25T08:15:07;11.90;;;6.17;;
4597;SDS011;62772;48.646;8.906;2023-04-25T08:20:12;10.73;;;6.10;;
4597;SDS011;62772;48.646;8.906;2023-04-25T08:25:14;14.30;;;7.80;;
4597;SDS011;62772;48.646;8.906;2023-04-25T08:30:15;11.20;;;6.70;;
4597;SDS011;62772;48.646;8.906;2023-04-25T08:35:16;12.43;;;6.60;;
4597;SDS011;62772;48.646;8.906;2023-04-25T08:40:18;13.73;;;6.87;;
4597;SDS011;62772;48.646;8.906;2023-04-25T08:45:31;9.73;;;6.00;;
4597;SDS011;62772;48.646;8.906;2023-04-25T08:50:32;8.20;;;5.27;;
4597;SDS011;62772;48.646;8.906;2023-04-25T08:55:37;8.47;;;5.13;;
4597;SDS011;62772;48.646;8.906;2023-04-25T09:00:43;8.53;;;5.60;;
4597;SDS011;62772;48.646;8.906;2023-04-25T09:05:45;8.43;;;4.73;;
4597;SDS011;62772;48.646;8.906;2023-04-25T09:10:49;8.60;;;4.60;;
4597;SDS011;62772;48.646;8.906;2023-04-25T09:15:51;9.70;;;5.23;;
4597;SDS011;62772;48.646;8.906;2023-04-25T09:21:07;5.50;;;3.53;;
4597;SDS011;62772;48.646;8.906;2023-04-25T09:26:10;3.53;;;2.40;;
4597;SDS011;62772;48.646;8.906;2023-04-25T09:31:21;3.70;;;2.37;;
4597;SDS011;62772;48.646;8.906;2023-04-25T09:36:26;3.10;;;2.10;;
4597;SDS011;62772;48.646;8.906;2023-04-25T09:41:46;3.63;;;2.43;;
4597;SDS011;62772;48.646;8.906;2023-04-25T09:46:49;3.30;;;2.17;;
4597;SDS011;62772;48.646;8.906;2023-04-25T09:51:58;3.90;;;2.00;;
4597;SDS011;62772;48.646;8.906;2023-04-25T10:02:13;2.63;;;1.60;;
4597;SDS011;62772;48.646;8.906;2023-04-25T10:07:15;2.93;;;1.60;;
4597;SDS011;62772;48.646;8.906;2023-04-25T10:12:18;2.10;;;1.13;;
4597;SDS011;62772;48.646;8.906;2023-04-25T10:17:20;3.07;;;1.63;;
4597;SDS011;62772;48.646;8.906;2023-04-25T10:22:23;3.67;;;1.90;;
4597;SDS011;62772;48.646;8.906;2023-04-25T10:27:31;2.70;;;1.57;;
4597;SDS011;62772;48.646;8.906;2023-04-25T10:32:32;2.30;;;1.50;;
4597;SDS011;62772;48.646;8.906;2023-04-25T10:37:33;2.33;;;1.70;;
4597;SDS011;62772;48.646;8.906;2023-04-25T10:42:35;1.63;;;1.20;;
4597;SDS011;62772;48.646;8.906;2023-04-25T10:47:36;5.23;;;1.70;;
4597;SDS011;62772;48.646;8.906;2023-04-25T10:52:40;2.07;;;1.40;;
4597;SDS011;62772;48.646;8.906;2023-04-25T10:57:41;2.10;;;1.33;;
4597;SDS011;62772;48.646;8.906;2023-04-25T11:07:51;2.20;;;1.60;;
4597;SDS011;62772;48.646;8.906;2023-04-25T11:12:57;2.40;;;1.80;;
4597;SDS011;62772;48.646;8.906;2023-04-25T11:17:58;3.87;;;1.80;;
4597;SDS011;62772;48.646;8.906;2023-04-25T11:22:58;2.90;;;1.80;;
4597;SDS011;62772;48.646;8.906;2023-04-25T11:28:00;2.50;;;1.70;;
4597;SDS011;62772;48.646;8.906;2023-04-25T11:33:03;3.00;;;1.80;;
4597;SDS011;62772;48.646;8.906;2023-04-25T11:38:03;2.73;;;1.70;;
4597;SDS011;62772;48.646;8.906;2023-04-25T11:43:04;5.10;;;3.10;;
4597;SDS011;62772;48.646;8.906;2023-04-25T11:48:04;5.07;;;3.37;;
4597;SDS011;62772;48.646;8.906;2023-04-25T11:53:05;9.30;;;4.00;;
4597;SDS011;62772;48.646;8.906;2023-04-25T11:58:06;6.80;;;4.77;;
4597;SDS011;62772;48.646;8.906;2023-04-25T12:03:08;7.30;;;4.77;;
4597;SDS011;62772;48.646;8.906;2023-04-25T12:08:09;8.07;;;4.80;;
4597;SDS011;62772;48.646;8.906;2023-04-25T12:13:32;9.23;;;5.57;;
4597;SDS011;62772;48.646;8.906;2023-04-25T12:18:32;9.70;;;5.70;;
4597;SDS011;62772;48.646;8.906;2023-04-25T12:23:38;10.40;;;6.10;;
4597;SDS011;62772;48.646;8.906;2023-04-25T12:28:39;12.80;;;6.13;;
4597;SDS011;62772;48.646;8.906;2023-04-25T12:33:40;12.77;;;6.70;;
4597;SDS011;62772;48.646;8.906;2023-04-25T12:38:41;11.17;;;7.17;;
4597;SDS011;62772;48.646;8.906;2023-04-25T12:43:42;8.67;;;6.20;;
4597;SDS011;62772;48.646;8.906;2023-04-25T12:48:42;10.10;;;6.23;;
4597;SDS011;62772;48.646;8.906;2023-04-25T12:53:43;8.07;;;5.40;;
4597;SDS011;62772;48.646;8.906;2023-04-25T12:58:43;10.67;;;5.87;;
4597;SDS011;62772;48.646;8.906;2023-04-25T13:03:44;11.43;;;6.50;;
4597;SDS011;62772;48.646;8.906;2023-04-25T13:08:44;15.80;;;9.03;;
4597;SDS011;62772;48.646;8.906;2023-04-25T13:13:45;9.73;;;6.43;;
4597;SDS011;62772;48.646;8.906;2023-04-25T13:18:45;7.90;;;5.00;;
4597;SDS011;62772;48.646;8.906;2023-04-25T13:23:46;7.03;;;4.53;;
4597;SDS011;62772;48.646;8.906;2023-04-25T13:28:46;7.53;;;4.70;;
4597;SDS011;62772;48.646;8.906;2023-04-25T13:33:47;6.50;;;4.93;;
4597;SDS011;62772;48.646;8.906;2023-04-25T13:38:47;9.10;;;5.97;;
4597;SDS011;62772;48.646;8.906;2023-04-25T13:43:49;8.77;;;5.90;;
4597;SDS011;62772;48.646;8.906;2023-04-25T13:48:49;14.90;;;6.50;;
4597;SDS011;62772;48.646;8.906;2023-04-25T13:53:50;10.20;;;6.53;;
4597;SDS011;62772;48.646;8.906;2023-04-25T13:58:50;12.97;;;8.00;;
4597;SDS011;62772;48.646;8.906;2023-04-25T14:03:51;12.37;;;7.50;;
4597;SDS011;62772;48.646;8.906;2023-04-25T14:08:52;9.47;;;6.27;;
4597;SDS011;62772;48.646;8.906;2023-04-25T14:13:53;10.10;;;6.40;;
4597;SDS011;62772;48.646;8.906;2023-04-25T14:18:54;11.50;;;6.50;;
4597;SDS011;62772;48.646;8.906;2023-04-25T14:23:54;9.63;;;5.97;;
4597;SDS011;62772;48.646;8.906;2023-04-25T14:28:55;6.13;;;4.50;;
4597;SDS011;62772;48.646;8.906;2023-04-25T14:33:55;9.30;;;5.10;;
4597;SDS011;62772;48.646;8.906;2023-04-25T14:38:56;7.53;;;5.00;;
4597;SDS011;62772;48.646;8.906;2023-04-25T14:43:57;8.20;;;5.10;;
4597;SDS011;62772;48.646;8.906;2023-04-25T14:48:57;6.17;;;4.43;;
4597;SDS011;62772;48.646;8.906;2023-04-25T14:53:57;6.17;;;4.30;;
4597;SDS011;62772;48.646;8.906;2023-04-25T14:58:58;6.70;;;3.93;;
4597;SDS011;62772;48.646;8.906;2023-04-25T15:03:58;3.97;;;2.80;;
4597;SDS011;62772;48.646;8.906;2023-04-25T15:08:59;3.20;;;2.53;;
4597;SDS011;62772;48.646;8.906;2023-04-25T15:13:59;3.33;;;2.63;;
4597;SDS011;62772;48.646;8.906;2023-04-25T15:19:00;4.50;;;2.60;;
4597;SDS011;62772;48.646;8.906;2023-04-25T15:24:03;4.40;;;3.37;;
4597;SDS011;62772;48.646;8.906;2023-04-25T15:29:05;5.00;;;3.60;;
4597;SDS011;62772;48.646;8.906;2023-04-25T15:34:05;5.57;;;3.73;;
4597;SDS011;62772;48.646;8.906;2023-04-25T15:39:06;6.00;;;4.03;;
4597;SDS011;62772;48.646;8.906;2023-04-25T15:44:07;6.23;;;4.30;;
4597;SDS011;62772;48.646;8.906;2023-04-25T15:49:09;7.23;;;4.30;;
4597;SDS011;62772;48.646;8.906;2023-04-25T15:54:10;6.80;;;4.57;;
4597;SDS011;62772;48.646;8.906;2023-04-25T15:59:10;5.53;;;3.93;;
4597;SDS011;62772;48.646;8.906;2023-04-25T16:04:11;7.43;;;4.00;;
4597;SDS011;62772;48.646;8.906;2023-04-25T16:09:11;7.20;;;4.10;;
4597;SDS011;62772;48.646;8.906;2023-04-25T16:14:12;7.20;;;4.60;;
4597;SDS011;62772;48.646;8.906;2023-04-25T16:19:12;6.83;;;3.70;;
4597;SDS011;62772;48.646;8.906;2023-04-25T16:24:13;6.00;;;3.93;;
4597;SDS011;62772;48.646;8.906;2023-04-25T16:29:13;7.13;;;4.10;;
4597;SDS011;62772;48.646;8.906;2023-04-25T16:34:16;12.53;;;4.73;;
4597;SDS011;62772;48.646;8.906;2023-04-25T16:39:16;7.33;;;4.03;;
4597;SDS011;62772;48.646;8.906;2023-04-25T16:44:17;6.80;;;4.20;;
4597;SDS011;62772;48.646;8.906;2023-04-25T16:49:17;7.03;;;4.10;;
4597;SDS011;62772;48.646;8.906;2023-04-25T16:54:18;6.07;;;4.33;;
4597;SDS011;62772;48.646;8.906;2023-04-25T16:59:18;6.50;;;4.37;;
4597;SDS011;62772;48.646;8.906;2023-04-25T17:04:19;5.80;;;3.87;;
4597;SDS011;62772;48.646;8.906;2023-04-25T17:09:19;8.03;;;4.40;;
4597;SDS011;62772;48.646;8.906;2023-04-25T17:14:20;6.50;;;4.50;;
4597;SDS011;62772;48.646;8.906;2023-04-25T17:19:21;6.83;;;4.93;;
4597;SDS011;62772;48.646;8.906;2023-04-25T17:24:21;11.60;;;6.97;;
4597;SDS011;62772;48.646;8.906;2023-04-25T17:29:22;7.93;;;5.70;;
4597;SDS011;62772;48.646;8.906;2023-04-25T17:34:26;9.57;;;5.70;;
4597;SDS011;62772;48.646;8.906;2023-04-25T17:39:27;13.83;;;5.80;;
4597;SDS011;62772;48.646;8.906;2023-04-25T17:44:27;8.40;;;5.10;;
4597;SDS011;62772;48.646;8.906;2023-04-25T17:49:28;8.80;;;5.83;;
4597;SDS011;62772;48.646;8.906;2023-04-25T17:54:29;8.50;;;5.53;;
4597;SDS011;62772;48.646;8.906;2023-04-25T17:59:29;10.63;;;6.07;;
4597;SDS011;62772;48.646;8.906;2023-04-25T18:04:30;11.03;;;6.63;;
4597;SDS011;62772;48.646;8.906;2023-04-25T18:09:31;10.17;;;6.70;;
4597;SDS011;62772;48.646;8.906;2023-04-25T18:14:31;9.27;;;6.10;;
4597;SDS011;62772;48.646;8.906;2023-04-25T18:19:33;10.90;;;6.70;;
4597;SDS011;62772;48.646;8.906;2023-04-25T18:24:34;10.67;;;6.40;;
4597;SDS011;62772;48.646;8.906;2023-04-25T18:29:35;12.43;;;6.63;;
4597;SDS011;62772;48.646;8.906;2023-04-25T18:34:37;9.23;;;5.93;;
4597;SDS011;62772;48.646;8.906;2023-04-25T18:39:40;8.20;;;5.43;;
4597;SDS011;62772;48.646;8.906;2023-04-25T18:44:40;9.50;;;5.43;;
4597;SDS011;62772;48.646;8.906;2023-04-25T18:49:41;8.70;;;5.53;;
4597;SDS011;62772;48.646;8.906;2023-04-25T18:54:42;10.73;;;6.40;;
4597;SDS011;62772;48.646;8.906;2023-04-25T18:59:43;10.27;;;6.53;;
4597;SDS011;62772;48.646;8.906;2023-04-25T19:04:45;12.00;;;6.53;;
4597;SDS011;62772;48.646;8.906;2023-04-25T19:09:45;26.93;;;12.33;;
4597;SDS011;62772;48.646;8.906;2023-04-25T19:14:46;10.80;;;6.73;;
4597;SDS011;62772;48.646;8.906;2023-04-25T19:19:47;10.67;;;6.83;;
4597;SDS011;62772;48.646;8.906;2023-04-25T19:24:48;10.13;;;6.40;;
4597;SDS011;62772;48.646;8.906;2023-04-25T19:29:48;10.50;;;6.90;;
4597;SDS011;62772;48.646;8.906;2023-04-25T19:34:56;9.87;;;5.97;;
4597;SDS011;62772;48.646;8.906;2023-04-25T19:39:57;14.10;;;7.27;;
4597;SDS011;62772;48.646;8.906;2023-04-25T19:44:58;10.60;;;7.60;;
4597;SDS011;62772;48.646;8.906;2023-04-25T19:49:59;9.67;;;6.13;;
4597;SDS011;62772;48.646;8.906;2023-04-25T19:54:59;10.50;;;6.57;;
4597;SDS011;62772;48.646;8.906;2023-04-25T20:00:05;12.60;;;6.33;;
4597;SDS011;62772;48.646;8.906;2023-04-25T20:05:13;9.20;;;5.57;;
4597;SDS011;62772;48.646;8.906;2023-04-25T20:10:15;10.43;;;6.30;;
4597;SDS011;62772;48.646;8.906;2023-04-25T20:15:16;8.60;;;5.90;;
4597;SDS011;62772;48.646;8.906;2023-04-25T20:20:17;8.53;;;5.90;;
4597;SDS011;62772;48.646;8.906;2023-04-25T20:25:17;10.07;;;6.30;;
4597;SDS011;62772;48.646;8.906;2023-04-25T20:30:18;10.70;;;6.67;;
4597;SDS011;62772;48.646;8.906;2023-04-25T20:35:18;10.20;;;6.07;;
4597;SDS011;62772;48.646;8.906;2023-04-25T20:40:21;9.03;;;5.60;;
4597;SDS011;62772;48.646;8.906;2023-04-25T20:45:22;11.07;;;5.97;;
4597;SDS011;62772;48.646;8.906;2023-04-25T20:50:23;10.37;;;5.67;;
4597;SDS011;62772;48.646;8.906;2023-04-25T20:55:24;9.70;;;6.20;;
4597;SDS011;62772;48.646;8.906;2023-04-25T21:00:24;9.73;;;6.47;;
4597;SDS011;62772;48.646;8.906;2023-04-25T21:05:28;10.57;;;6.20;;
4597;SDS011;62772;48.646;8.906;2023-04-25T21:10:40;14.07;;;6.68;;
4597;SDS011;62772;48.646;8.906;2023-04-25T21:15:41;9.40;;;6.00;;
4597;SDS011;62772;48.646;8.906;2023-04-25T21:20:42;13.63;;;7.50;;
4597;SDS011;62772;48.646;8.906;2023-04-25T21:25:42;14.30;;;7.80;;
4597;SDS011;62772;48.646;8.906;2023-04-25T21:30:43;10.50;;;6.50;;
4597;SDS011;62772;48.646;8.906;2023-04-25T21:35:44;11.60;;;6.97;;
4597;SDS011;62772;48.646;8.906;2023-04-25T21:40:45;11.73;;;6.53;;
4597;SDS011;62772;48.646;8.906;2023-04-25T21:45:45;11.67;;;7.20;;
4597;SDS011;62772;48.646;8.906;2023-04-25T21:50:46;12.17;;;7.13;;
4597;SDS011;62772;48.646;8.906;2023-04-25T21:55:46;9.77;;;6.80;;
4597;SDS011;62772;48.646;8.906;2023-04-25T22:00:47;10.10;;;6.73;;
4597;SDS011;62772;48.646;8.906;2023-04-25T22:05:48;10.50;;;6.77;;
4597;SDS011;62772;48.646;8.906;2023-04-25T22:10:48;11.93;;;7.67;;
4597;SDS011;62772;48.646;8.906;2023-04-25T22:15:49;18.53;;;8.80;;
4597;SDS011;62772;48.646;8.906;2023-04-25T22:20:49;14.20;;;8.37;;
4597;SDS011;62772;48.646;8.906;2023-04-25T22:25:50;16.77;;;8.57;;
4597;SDS011;62772;48.646;8.906;2023-04-25T22:30:51;14.37;;;8.57;;
4597;SDS011;62772;48.646;8.906;2023-04-25T22:35:51;15.00;;;8.53;;
4597;SDS011;62772;48.646;8.906;2023-04-25T22:40:52;15.20;;;8.23;;
4597;SDS011;62772;48.646;8.906;2023-04-25T22:45:52;17.10;;;9.40;;
4597;SDS011;62772;48.646;8.906;2023-04-25T22:51:02;17.47;;;9.07;;
4597;SDS011;62772;48.646;8.906;2023-04-25T22:56:09;16.70;;;8.43;;
4597;SDS011;62772;48.646;8.906;2023-04-25T23:01:11;12.13;;;7.97;;
4597;SDS011;62772;48.646;8.906;2023-04-25T23:06:11;14.53;;;8.70;;
4597;SDS011;62772;48.646;8.906;2023-04-25T23:11:12;25.63;;;8.50;;
4597;SDS011;62772;48.646;8.906;2023-04-25T23:16:13;15.80;;;8.50;;
4597;SDS011;62772;48.646;8.906;2023-04-25T23:21:13;12.90;;;7.63;;
4597;SDS011;62772;48.646;8.906;2023-04-25T23:26:14;11.93;;;7.77;;
4597;SDS011;62772;48.646;8.906;2023-04-25T23:31:15;11.17;;;7.73;;
4597;SDS011;62772;48.646;8.906;2023-04-25T23:36:16;12.13;;;7.40;;
4597;SDS011;62772;48.646;8.906;2023-04-25T23:41:18;15.23;;;8.40;;
4597;SDS011;62772;48.646;8.906;2023-04-25T23:46:19;16.40;;;9.20;;
4597;SDS011;62772;48.646;8.906;2023-04-25T23:51:20;17.20;;;9.37;;
4597;SDS011;62772;48.646;8.906;2023-04-25T23:56:20;20.43;;;8.80;;
